createdAt,value
2022-10-16T00:00:23.805Z,3.49
2022-10-16T00:02:56.711Z,3.48
2022-10-16T00:05:30.032Z,3.46
2022-10-16T00:08:04.530Z,3.44
2022-10-16T00:10:37.945Z,3.43
2022-10-16T00:13:10.887Z,3.41
2022-10-16T00:15:45.166Z,3.42
2022-10-16T00:18:17.916Z,3.39
2022-10-16T00:20:51.006Z,3.38
2022-10-16T00:23:24.638Z,3.35
2022-10-16T00:25:59.695Z,3.33
2022-10-16T00:28:33.195Z,3.30
2022-10-16T00:31:12.075Z,3.26
2022-10-16T00:33:45.239Z,3.23
2022-10-16T00:36:21.789Z,3.20
2022-10-16T00:38:57.491Z,3.19
2022-10-16T00:41:31.719Z,3.20
2022-10-16T00:44:08.379Z,3.20
2022-10-16T00:46:45.740Z,3.17
2022-10-16T00:49:20.395Z,3.15
2022-10-16T00:51:55.357Z,3.13
2022-10-16T00:54:32.989Z,3.11
2022-10-16T00:57:08.736Z,3.07
2022-10-16T00:59:44.221Z,3.03
2022-10-16T01:02:19.298Z,2.98
2022-10-16T01:04:55.011Z,2.94
2022-10-16T01:07:38.561Z,2.91
2022-10-16T01:10:52.393Z,2.89
2022-10-16T01:13:38.802Z,2.90
2022-10-16T01:16:18.429Z,2.89
2022-10-16T01:19:03.453Z,2.90
2022-10-16T01:21:42.839Z,2.90
2022-10-16T01:24:26.042Z,2.87
2022-10-16T01:27:19.359Z,2.87
2022-10-16T01:30:21.941Z,2.87
2022-10-16T01:32:59.529Z,2.87
2022-10-16T01:35:47.708Z,2.88
2022-10-16T01:38:27.828Z,2.89
2022-10-16T01:41:11.395Z,2.90
2022-10-16T01:43:54.183Z,2.89
2022-10-16T01:46:28.152Z,2.90
2022-10-16T01:49:02.970Z,2.90
2022-10-16T01:51:36.115Z,2.90
2022-10-16T01:54:11.046Z,2.89
2022-10-16T01:56:44.954Z,2.89
2022-10-16T01:59:21.967Z,2.90
2022-10-16T02:01:59.376Z,2.90
2022-10-16T02:04:39.327Z,2.92
2022-10-16T02:07:12.429Z,2.96
2022-10-16T02:09:46.800Z,2.99
2022-10-16T02:12:33.371Z,3.03
2022-10-16T02:15:06.873Z,3.05
2022-10-16T02:17:41.115Z,3.07
2022-10-16T02:20:14.543Z,3.12
2022-10-16T02:22:49.840Z,3.15
2022-10-16T02:25:33.058Z,3.18
2022-10-16T02:28:10.273Z,3.21
2022-10-16T02:30:56.034Z,3.24
2022-10-16T02:33:31.218Z,3.25
2022-10-16T02:36:04.523Z,3.26
2022-10-16T02:38:38.074Z,3.26
2022-10-16T02:41:14.443Z,3.26
2022-10-16T02:43:47.414Z,3.25
2022-10-16T02:46:21.114Z,3.28
2022-10-16T02:48:53.797Z,3.29
2022-10-16T02:51:26.963Z,3.27
2022-10-16T02:53:59.916Z,3.24
2022-10-16T02:56:33.170Z,3.23
2022-10-16T02:59:06.103Z,3.24
2022-10-16T03:01:39.589Z,3.23
2022-10-16T03:04:12.441Z,3.23
2022-10-16T03:06:45.548Z,3.22
2022-10-16T03:09:19.564Z,3.18
2022-10-16T03:11:53.463Z,3.16
2022-10-16T03:16:59.861Z,3.17
2022-10-16T03:19:33.304Z,3.18
2022-10-16T03:22:06.141Z,3.19
2022-10-16T03:24:39.690Z,3.18
2022-10-16T03:27:12.738Z,3.17
2022-10-16T03:29:46.326Z,3.15
2022-10-16T03:32:19.630Z,3.14
2022-10-16T03:34:54.305Z,3.15
2022-10-16T03:37:27.620Z,3.15
2022-10-16T03:40:01.266Z,3.15
2022-10-16T03:42:34.477Z,3.17
2022-10-16T03:45:08.540Z,3.14
2022-10-16T03:47:40.773Z,3.11
2022-10-16T03:50:13.794Z,3.08
2022-10-16T03:52:47.006Z,3.06
2022-10-16T03:55:19.702Z,3.08
2022-10-16T03:57:52.763Z,3.10
2022-10-16T04:00:25.666Z,3.13
2022-10-16T04:02:58.476Z,3.13
2022-10-16T04:05:31.693Z,3.13
2022-10-16T04:08:05.290Z,3.16
2022-10-16T04:10:38.786Z,3.16
2022-10-16T04:13:12.408Z,3.18
2022-10-16T04:15:47.394Z,3.19
2022-10-16T04:18:20.401Z,3.20
2022-10-16T04:20:53.784Z,3.19
2022-10-16T04:23:27.226Z,3.18
2022-10-16T04:25:59.996Z,3.17
2022-10-16T04:28:33.522Z,3.20
2022-10-16T04:31:10.295Z,3.24
2022-10-16T04:33:47.301Z,3.29
2022-10-16T04:36:21.564Z,3.34
2022-10-16T04:38:54.911Z,3.38
2022-10-16T04:41:28.154Z,3.40
2022-10-16T04:44:01.096Z,3.44
2022-10-16T04:46:33.883Z,3.47
2022-10-16T04:49:06.765Z,3.51
2022-10-16T04:51:40.181Z,3.56
2022-10-16T04:54:13.723Z,3.57
2022-10-16T04:56:48.030Z,3.59
2022-10-16T04:59:22.011Z,3.62
2022-10-16T05:01:54.811Z,3.64
2022-10-16T05:04:27.875Z,3.67
2022-10-16T05:07:00.933Z,3.71
2022-10-16T05:09:34.514Z,3.75
2022-10-16T05:12:07.755Z,3.79
2022-10-16T05:14:41.380Z,3.89
2022-10-16T05:17:15.006Z,3.98
2022-10-16T05:19:48.912Z,4.07
2022-10-16T05:22:22.179Z,4.15
2022-10-16T05:24:55.177Z,4.24
2022-10-16T05:27:28.777Z,4.37
2022-10-16T05:30:02.290Z,4.48
2022-10-16T05:32:35.954Z,4.53
2022-10-16T05:35:12.561Z,4.54
2022-10-16T05:37:45.529Z,4.55
2022-10-16T05:40:19.113Z,4.55
2022-10-16T05:42:52.429Z,4.58
2022-10-16T05:45:25.565Z,4.62
2022-10-16T05:47:58.820Z,4.68
2022-10-16T05:50:31.631Z,4.76
2022-10-16T05:53:04.783Z,4.83
2022-10-16T05:55:38.987Z,4.90
2022-10-16T05:58:12.128Z,4.97
2022-10-16T06:00:45.030Z,5.05
2022-10-16T06:03:18.806Z,5.12
2022-10-16T06:05:52.711Z,5.15
2022-10-16T06:08:26.525Z,5.19
2022-10-16T06:11:07.742Z,5.24
2022-10-16T06:13:42.843Z,5.30
2022-10-16T06:16:17.484Z,5.36
2022-10-16T06:18:52.913Z,5.43
2022-10-16T06:21:28.119Z,5.52
2022-10-16T06:24:02.163Z,5.59
2022-10-16T06:26:35.278Z,5.68
2022-10-16T06:29:10.260Z,5.79
2022-10-16T06:31:43.686Z,5.89
2022-10-16T06:34:17.188Z,6.00
2022-10-16T06:36:50.163Z,6.11
2022-10-16T06:39:23.453Z,6.24
2022-10-16T06:41:56.945Z,6.36
2022-10-16T06:44:31.539Z,6.48
2022-10-16T06:47:05.176Z,6.63
2022-10-16T06:49:38.256Z,6.83
2022-10-16T06:52:11.611Z,7.02
2022-10-16T06:54:44.401Z,7.19
2022-10-16T06:57:17.309Z,7.35
2022-10-16T06:59:55.123Z,7.49
2022-10-16T07:02:25.776Z,7.60
2022-10-16T07:04:58.876Z,7.73
2022-10-16T07:07:32.775Z,7.83
2022-10-16T07:10:07.238Z,7.94
2022-10-16T07:12:41.168Z,8.05
2022-10-16T07:15:15.488Z,8.15
2022-10-16T07:17:48.207Z,8.20
2022-10-16T07:20:22.428Z,8.26
2022-10-16T07:22:55.124Z,8.30
2022-10-16T07:25:27.954Z,8.39
2022-10-16T07:28:00.734Z,8.46
2022-10-16T07:30:35.547Z,8.55
2022-10-16T07:33:07.407Z,8.66
2022-10-16T07:35:40.197Z,8.76
2022-10-16T07:38:13.021Z,8.83
2022-10-16T07:40:46.396Z,8.88
2022-10-16T07:43:19.567Z,8.96
2022-10-16T07:45:53.781Z,9.02
2022-10-16T07:48:33.045Z,9.08
2022-10-16T07:51:08.421Z,9.15
2022-10-16T07:53:41.865Z,9.21
2022-10-16T07:56:17.103Z,9.27
2022-10-16T07:58:51.436Z,9.30
2022-10-16T08:01:24.160Z,9.38
2022-10-16T08:03:56.995Z,9.42
2022-10-16T08:06:30.097Z,9.47
2022-10-16T08:09:03.037Z,9.53
2022-10-16T08:11:36.314Z,9.61
2022-10-16T08:14:09.659Z,9.69
2022-10-16T08:16:43.046Z,9.76
2022-10-16T08:19:17.021Z,9.84
2022-10-16T08:21:53.118Z,9.91
2022-10-16T08:24:25.801Z,9.97
2022-10-16T08:26:59.157Z,10.05
2022-10-16T08:29:32.206Z,10.15
2022-10-16T08:32:07.590Z,10.23
2022-10-16T08:34:40.413Z,10.30
2022-10-16T08:37:14.994Z,10.36
2022-10-16T08:39:49.281Z,10.43
2022-10-16T08:42:35.673Z,10.50
2022-10-16T08:45:34.589Z,10.55
2022-10-16T08:48:20.752Z,10.61
2022-10-16T08:50:54.999Z,10.71
2022-10-16T08:53:32.709Z,10.80
2022-10-16T08:56:06.887Z,10.86
2022-10-16T08:58:39.842Z,10.94
2022-10-16T09:01:17.511Z,11.02
2022-10-16T09:04:21.056Z,11.07
2022-10-16T09:07:03.842Z,11.13
2022-10-16T09:09:53.189Z,11.18
2022-10-16T09:12:33.624Z,11.23
2022-10-16T09:15:35.521Z,11.29
2022-10-16T09:18:35.718Z,11.36
2022-10-16T09:21:30.825Z,11.44
2022-10-16T09:24:18.090Z,11.52
2022-10-16T09:26:51.136Z,11.59
2022-10-16T09:29:26.527Z,11.64
2022-10-16T09:32:02.923Z,11.69
2022-10-16T09:34:38.440Z,11.74
2022-10-16T09:37:23.730Z,11.78
2022-10-16T09:39:58.183Z,11.85
2022-10-16T09:42:37.594Z,11.90
2022-10-16T09:45:23.688Z,11.93
2022-10-16T09:47:57.866Z,11.95
2022-10-16T09:50:31.544Z,11.99
2022-10-16T09:53:13.842Z,12.01
2022-10-16T09:55:55.269Z,12.05
2022-10-16T09:58:28.028Z,12.08
2022-10-16T10:01:01.912Z,12.12
2022-10-16T10:03:41.658Z,12.17
2022-10-16T10:06:27.989Z,12.24
2022-10-16T10:09:20.464Z,12.27
2022-10-16T10:12:04.697Z,12.32
2022-10-16T10:14:45.218Z,12.33
2022-10-16T10:17:23.953Z,12.35
2022-10-16T10:20:03.049Z,12.31
2022-10-16T10:22:46.535Z,12.30
2022-10-16T10:25:47.172Z,12.27
2022-10-16T10:28:33.383Z,12.26
2022-10-16T10:31:38.282Z,12.22
2022-10-16T10:34:39.399Z,12.18
2022-10-16T10:37:25.956Z,12.16
2022-10-16T10:40:35.965Z,12.17
2022-10-16T10:43:42.391Z,12.17
2022-10-16T10:46:20.204Z,12.20
2022-10-16T10:49:25.945Z,12.25
2022-10-16T10:52:30.254Z,12.26
2022-10-16T10:55:29.189Z,12.29
2022-10-16T10:58:38.777Z,12.31
2022-10-16T11:01:21.364Z,12.31
2022-10-16T11:04:13.035Z,12.34
2022-10-16T11:06:52.986Z,12.35
2022-10-16T11:09:42.524Z,12.35
2022-10-16T11:12:44.930Z,12.33
2022-10-16T11:15:31.885Z,12.31
2022-10-16T11:18:37.074Z,12.33
2022-10-16T11:21:11.795Z,12.38
2022-10-16T11:23:49.130Z,12.43
2022-10-16T11:26:32.577Z,12.46
2022-10-16T11:29:06.908Z,12.49
2022-10-16T11:31:44.640Z,12.52
2022-10-16T11:34:31.771Z,12.54
2022-10-16T11:37:35.258Z,12.54
2022-10-16T11:40:35.115Z,12.53
2022-10-16T11:43:19.468Z,12.53
2022-10-16T11:45:59.458Z,12.52
2022-10-16T11:49:06.206Z,12.53
2022-10-16T11:51:47.458Z,12.53
2022-10-16T11:54:43.922Z,12.53
2022-10-16T11:57:30.423Z,12.51
2022-10-16T12:00:32.160Z,12.51
2022-10-16T12:03:30.997Z,12.50
2022-10-16T12:06:39.425Z,12.51
2022-10-16T12:09:17.585Z,12.51
2022-10-16T12:11:51.022Z,12.49
2022-10-16T12:15:04.039Z,12.48
2022-10-16T12:17:38.040Z,12.46
2022-10-16T12:20:32.720Z,12.47
2022-10-16T12:23:08.087Z,12.47
2022-10-16T12:25:44.422Z,12.45
2022-10-16T12:28:26.793Z,12.45
2022-10-16T12:31:03.910Z,12.44
2022-10-16T12:33:47.752Z,12.44
2022-10-16T12:36:35.748Z,12.44
2022-10-16T12:39:08.518Z,12.44
2022-10-16T12:41:41.590Z,12.43
2022-10-16T12:44:27.691Z,12.42
2022-10-16T12:47:01.119Z,12.40
2022-10-16T12:49:39.531Z,12.39
2022-10-16T12:52:39.504Z,12.38
2022-10-16T12:55:17.084Z,12.37
2022-10-16T12:58:12.584Z,12.34
2022-10-16T13:00:54.427Z,12.33
2022-10-16T13:04:08.348Z,12.29
2022-10-16T13:07:04.096Z,12.27
2022-10-16T13:10:06.564Z,12.22
2022-10-16T13:13:02.844Z,12.18
2022-10-16T13:15:55.557Z,12.15
2022-10-16T13:18:41.562Z,12.12
2022-10-16T13:21:29.959Z,12.10
2022-10-16T13:24:28.994Z,12.09
2022-10-16T13:27:24.873Z,12.07
2022-10-16T13:30:06.146Z,12.04
2022-10-16T13:32:38.881Z,12.01
2022-10-16T13:35:28.730Z,11.98
2022-10-16T13:38:20.619Z,11.93
2022-10-16T13:41:06.275Z,11.89
2022-10-16T13:43:45.790Z,11.85
2022-10-16T13:46:21.748Z,11.83
2022-10-16T13:49:07.377Z,11.79
2022-10-16T13:51:41.407Z,11.77
2022-10-16T13:54:14.691Z,11.72
2022-10-16T13:56:47.830Z,11.68
2022-10-16T13:59:29.964Z,11.65
2022-10-16T14:02:10.585Z,11.61
2022-10-16T14:04:44.630Z,11.57
2022-10-16T14:07:24.393Z,11.51
2022-10-16T14:09:59.036Z,11.45
2022-10-16T14:12:33.111Z,11.37
2022-10-16T14:15:09.994Z,11.33
2022-10-16T14:17:46.094Z,11.27
2022-10-16T14:20:20.023Z,11.20
2022-10-16T14:23:03.631Z,11.15
2022-10-16T14:25:36.697Z,11.10
2022-10-16T14:28:21.326Z,11.01
2022-10-16T14:30:59.049Z,10.95
2022-10-16T14:33:35.846Z,10.86
2022-10-16T14:36:19.345Z,10.80
2022-10-16T14:39:05.530Z,10.72
2022-10-16T14:41:51.044Z,10.64
2022-10-16T14:44:30.941Z,10.57
2022-10-16T14:47:16.480Z,10.48
2022-10-16T14:49:49.370Z,10.42
2022-10-16T14:52:22.510Z,10.36
2022-10-16T14:54:57.219Z,10.29
2022-10-16T14:57:31.749Z,10.24
2022-10-16T15:00:06.655Z,10.20
2022-10-16T15:02:39.831Z,10.13
2022-10-16T15:05:28.775Z,10.09
2022-10-16T15:08:02.177Z,10.02
2022-10-16T15:10:39.832Z,9.95
2022-10-16T15:13:16.112Z,9.88
2022-10-16T15:15:53.313Z,9.82
2022-10-16T15:18:26.344Z,9.75
2022-10-16T15:20:59.763Z,9.67
2022-10-16T15:23:33.033Z,9.62
2022-10-16T15:26:06.178Z,9.54
2022-10-16T15:28:39.274Z,9.49
2022-10-16T15:31:12.950Z,9.43
2022-10-16T15:33:47.933Z,9.38
2022-10-16T15:36:38.153Z,9.35
2022-10-16T15:39:21.427Z,9.31
2022-10-16T15:41:54.811Z,9.28
2022-10-16T15:44:29.371Z,9.23
2022-10-16T15:47:05.107Z,9.20
2022-10-16T15:49:38.204Z,9.17
2022-10-16T15:52:11.995Z,9.13
2022-10-16T15:54:50.402Z,9.09
2022-10-16T15:57:20.458Z,9.04
2022-10-16T16:02:28.694Z,8.95
2022-10-16T16:05:03.022Z,8.93
2022-10-16T16:07:41.871Z,8.92
2022-10-16T16:10:16.114Z,8.91
2022-10-16T16:12:54.071Z,8.91
2022-10-16T16:15:28.422Z,8.91
2022-10-16T16:18:02.979Z,8.91
2022-10-16T16:20:37.760Z,8.88
2022-10-16T16:23:10.956Z,8.86
2022-10-16T16:25:45.371Z,8.83
2022-10-16T16:28:18.095Z,8.79
2022-10-16T16:30:53.712Z,8.78
2022-10-16T16:33:26.711Z,8.74
2022-10-16T16:36:05.013Z,8.71
2022-10-16T16:38:37.828Z,8.65
2022-10-16T16:41:24.092Z,8.63
2022-10-16T16:43:58.279Z,8.63
2022-10-16T16:46:32.051Z,8.64
2022-10-16T16:49:05.674Z,8.61
2022-10-16T16:51:40.870Z,8.61
2022-10-16T16:54:15.186Z,8.61
2022-10-16T16:56:49.508Z,8.59
2022-10-16T16:59:23.659Z,8.57
2022-10-16T17:01:57.141Z,8.57
2022-10-16T17:04:30.615Z,8.57
2022-10-16T17:07:04.483Z,8.56
2022-10-16T17:09:38.040Z,8.54
2022-10-16T17:12:11.408Z,8.55
2022-10-16T17:14:49.168Z,8.53
2022-10-16T17:17:21.978Z,8.51
2022-10-16T17:19:55.527Z,8.53
2022-10-16T17:22:28.632Z,8.55
2022-10-16T17:25:04.174Z,8.55
2022-10-16T17:27:37.851Z,8.58
2022-10-16T17:30:11.923Z,8.61
2022-10-16T17:32:47.187Z,8.62
2022-10-16T17:35:21.790Z,8.62
2022-10-16T17:37:55.854Z,8.62
2022-10-16T17:40:31.399Z,8.59
2022-10-16T17:43:04.748Z,8.57
2022-10-16T17:45:43.233Z,8.53
2022-10-16T17:48:16.143Z,8.50
2022-10-16T17:50:49.450Z,8.48
2022-10-16T17:53:22.847Z,8.47
2022-10-16T17:55:57.487Z,8.45
2022-10-16T17:58:32.212Z,8.46
2022-10-16T18:01:06.359Z,8.48
2022-10-16T18:03:39.072Z,8.47
2022-10-16T18:06:13.806Z,8.43
2022-10-16T18:08:48.377Z,8.42
2022-10-16T18:11:23.755Z,8.39
2022-10-16T18:13:59.175Z,8.37
2022-10-16T18:16:31.905Z,8.34
2022-10-16T18:19:05.177Z,8.29
2022-10-16T18:21:38.048Z,8.25
2022-10-16T18:24:11.759Z,8.21
2022-10-16T18:26:45.666Z,8.19
2022-10-16T18:29:19.992Z,8.17
2022-10-16T18:31:53.013Z,8.12
2022-10-16T18:34:27.478Z,8.09
2022-10-16T18:37:00.566Z,8.05
2022-10-16T18:39:34.578Z,8.01
2022-10-16T18:42:07.780Z,7.96
2022-10-16T18:44:40.922Z,7.93
2022-10-16T18:47:14.016Z,7.88
2022-10-16T18:49:49.140Z,7.84
2022-10-16T18:52:23.835Z,7.81
2022-10-16T18:54:58.554Z,7.77
2022-10-16T18:57:32.507Z,7.76
2022-10-16T19:00:06.079Z,7.76
2022-10-16T19:02:39.777Z,7.75
2022-10-16T19:05:15.616Z,7.75
2022-10-16T19:07:49.378Z,7.75
2022-10-16T19:10:22.596Z,7.75
2022-10-16T19:12:56.204Z,7.72
2022-10-16T19:15:29.110Z,7.69
2022-10-16T19:18:02.429Z,7.66
2022-10-16T19:20:35.774Z,7.63
2022-10-16T19:23:08.760Z,7.59
2022-10-16T19:25:41.997Z,7.56
2022-10-16T19:28:15.459Z,7.55
2022-10-16T19:30:49.231Z,7.54
2022-10-16T19:33:22.476Z,7.52
2022-10-16T19:35:55.451Z,7.51
2022-10-16T19:38:28.239Z,7.48
2022-10-16T19:41:10.534Z,7.45
2022-10-16T19:43:44.321Z,7.40
2022-10-16T19:46:23.469Z,7.37
2022-10-16T19:49:02.783Z,7.35
2022-10-16T19:51:37.555Z,7.32
2022-10-16T19:54:14.955Z,7.29
2022-10-16T19:56:47.764Z,7.24
2022-10-16T19:59:20.945Z,7.22
2022-10-16T20:01:54.270Z,7.08
2022-10-16T20:04:27.582Z,7.08
2022-10-16T20:07:00.662Z,7.05
2022-10-16T20:09:35.716Z,7.00
2022-10-16T20:12:08.546Z,6.96
2022-10-16T20:14:42.503Z,6.95
2022-10-16T20:17:15.639Z,6.96
2022-10-16T20:19:48.553Z,6.97
2022-10-16T20:22:21.952Z,6.98
2022-10-16T20:24:55.792Z,6.98
2022-10-16T20:27:29.980Z,6.98
2022-10-16T20:30:03.351Z,6.97
2022-10-16T20:32:36.918Z,6.95
2022-10-16T20:35:10.708Z,6.98
2022-10-16T20:37:45.049Z,6.96
2022-10-16T20:40:17.272Z,6.96
2022-10-16T20:42:50.894Z,6.96
2022-10-16T20:45:24.450Z,6.94
2022-10-16T20:47:57.346Z,6.91
2022-10-16T20:50:33.824Z,6.90
2022-10-16T20:53:06.929Z,6.91
2022-10-16T20:55:40.212Z,6.91
2022-10-16T20:58:13.484Z,6.91
2022-10-16T21:00:47.028Z,6.91
2022-10-16T21:03:22.041Z,6.93
2022-10-16T21:05:57.867Z,6.94
2022-10-16T21:08:30.703Z,6.93
2022-10-16T21:11:05.294Z,6.93
2022-10-16T21:13:40.012Z,6.91
2022-10-16T21:16:14.175Z,6.86
2022-10-16T21:18:47.628Z,6.84
2022-10-16T21:21:30.760Z,6.82
2022-10-16T21:24:03.721Z,6.81
2022-10-16T21:26:36.721Z,6.81
2022-10-16T21:29:11.352Z,6.81
2022-10-16T21:31:45.612Z,6.79
2022-10-16T21:34:18.294Z,6.74
2022-10-16T21:36:51.628Z,6.70
2022-10-16T21:39:24.696Z,6.63
2022-10-16T21:41:57.933Z,6.58
2022-10-16T21:44:30.794Z,6.54
2022-10-16T21:47:04.919Z,6.50
2022-10-16T21:49:38.477Z,6.48
2022-10-16T21:52:12.005Z,6.45
2022-10-16T21:54:44.740Z,6.42
2022-10-16T21:57:17.712Z,6.38
2022-10-16T21:59:54.748Z,6.33
2022-10-16T22:02:27.632Z,6.26
2022-10-16T22:05:00.898Z,6.21
2022-10-16T22:07:35.266Z,6.19
2022-10-16T22:10:09.383Z,6.18
2022-10-16T22:12:42.091Z,6.16
2022-10-16T22:15:15.382Z,6.12
2022-10-16T22:17:48.420Z,6.09
2022-10-16T22:20:21.691Z,6.03
2022-10-16T22:22:54.554Z,5.98
2022-10-16T22:25:27.307Z,5.94
2022-10-16T22:28:00.172Z,5.91
2022-10-16T22:30:33.166Z,5.89
2022-10-16T22:33:07.991Z,5.85
2022-10-16T22:35:42.678Z,5.83
2022-10-16T22:38:15.522Z,5.82
2022-10-16T22:40:48.588Z,5.81
2022-10-16T22:43:21.524Z,5.78
2022-10-16T22:45:54.357Z,5.77
2022-10-16T22:48:27.302Z,5.78
2022-10-16T22:51:00.047Z,5.78
2022-10-16T22:53:34.255Z,5.78
2022-10-16T22:56:07.385Z,5.77
2022-10-16T22:58:40.429Z,5.76
2022-10-16T23:01:20.462Z,5.74
2022-10-16T23:03:53.213Z,5.70
2022-10-16T23:06:26.484Z,5.62
2022-10-16T23:09:02.917Z,5.56
2022-10-16T23:11:37.286Z,5.55
2022-10-16T23:14:10.257Z,5.50
2022-10-16T23:16:43.204Z,5.48
2022-10-16T23:19:17.030Z,5.43
2022-10-16T23:21:51.610Z,5.38
2022-10-16T23:24:25.041Z,5.32
2022-10-16T23:26:57.976Z,5.27
2022-10-16T23:29:30.982Z,5.25
2022-10-16T23:32:03.875Z,5.25
2022-10-16T23:34:37.968Z,5.24
2022-10-16T23:37:10.860Z,5.22
2022-10-16T23:39:44.501Z,5.17
2022-10-16T23:42:17.222Z,5.14
2022-10-16T23:44:50.324Z,5.10
2022-10-16T23:47:24.139Z,5.07
2022-10-16T23:49:57.172Z,5.05
2022-10-16T23:52:30.039Z,5.01
2022-10-16T23:55:03.034Z,4.99
2022-10-16T23:57:36.174Z,4.97
